Terminal Aerodrome Forecast
Issued by NWS

Home | Current Version | Previous Version | Text Only | Print | Product List | Glossary On
Versions: 1 2 3 4 5 6 7 8 9 10 11 12 13 14 15 16 17
000
FTUS42 TJSJ 221700
TAFJSJ
TAF
TJSJ 221722Z 2218/2318 04011KT P6SM FEW023 SCT035 SCT090
     FM222200 09010KT P6SM VCSH SCT030 SCT050 BKN100
     FM231000 08012KT P6SM VCTS SCT025CB BKN040=

USA.gov is the U.S. government's official web portal to all federal, state and local government web resources and services.